createdAt,value
2022-09-15T00:01:30.962Z,7.50
2022-09-15T00:03:59.213Z,7.45
2022-09-15T00:06:27.121Z,7.95
2022-09-15T00:08:56.564Z,7.32
2022-09-15T00:11:26.509Z,7.60
2022-09-15T00:13:57.942Z,9.52
2022-09-15T00:16:27.962Z,8.52
2022-09-15T00:18:56.414Z,8.70
2022-09-15T00:21:26.836Z,6.07
2022-09-15T00:23:57.090Z,6.38
2022-09-15T00:26:28.265Z,7.88
2022-09-15T00:28:58.122Z,8.18
2022-09-15T00:31:28.103Z,7.68
2022-09-15T00:33:58.305Z,6.40
2022-09-15T00:36:27.683Z,10.23
2022-09-15T00:38:57.558Z,8.00
2022-09-15T00:41:26.213Z,7.65
2022-09-15T00:43:58.261Z,8.07
2022-09-15T00:46:30.033Z,9.23
2022-09-15T00:49:04.736Z,6.13
2022-09-15T00:51:38.995Z,12.98
2022-09-15T00:54:14.415Z,11.13
2022-09-15T00:56:45.033Z,9.40
2022-09-15T00:59:17.837Z,8.80
2022-09-15T01:01:48.668Z,9.55
2022-09-15T01:04:17.514Z,7.20
2022-09-15T01:06:52.529Z,8.23
2022-09-15T01:09:37.185Z,7.75
2022-09-15T01:12:06.234Z,7.72
2022-09-15T01:14:34.553Z,8.73
2022-09-15T01:17:08.331Z,10.63
2022-09-15T01:19:59.378Z,8.63
2022-09-15T01:22:37.598Z,8.77
2022-09-15T01:25:15.831Z,8.25
2022-09-15T01:28:02.339Z,8.13
2022-09-15T01:30:36.892Z,11.13
2022-09-15T01:33:13.035Z,8.98
2022-09-15T01:36:02.297Z,6.65
2022-09-15T01:38:39.813Z,9.52
2022-09-15T01:41:15.424Z,8.70
2022-09-15T01:43:48.981Z,7.55
2022-09-15T01:46:20.453Z,7.90
2022-09-15T01:48:49.445Z,10.13
2022-09-15T01:51:18.633Z,9.30
2022-09-15T01:53:50.713Z,9.77
2022-09-15T01:56:18.885Z,6.63
2022-09-15T01:58:51.970Z,5.47
2022-09-15T02:01:29.709Z,7.10
2022-09-15T02:04:03.086Z,5.88
2022-09-15T02:06:39.329Z,5.63
2022-09-15T02:09:13.684Z,5.63
2022-09-15T02:11:52.158Z,6.15
2022-09-15T02:14:36.750Z,6.60
2022-09-15T02:17:08.313Z,7.03
2022-09-15T02:19:42.043Z,7.28
2022-09-15T02:22:18.871Z,5.90
2022-09-15T02:24:52.095Z,5.10
2022-09-15T02:27:24.081Z,5.28
2022-09-15T02:29:56.702Z,5.10
2022-09-15T02:32:28.529Z,5.53
2022-09-15T02:34:59.720Z,5.28
2022-09-15T02:37:28.858Z,4.13
2022-09-15T02:39:58.569Z,4.68
2022-09-15T02:42:27.842Z,3.33
2022-09-15T02:44:56.401Z,6.20
2022-09-15T02:47:28.336Z,5.10
2022-09-15T02:49:57.013Z,4.47
2022-09-15T02:52:25.368Z,6.00
2022-09-15T02:54:54.621Z,4.45
2022-09-15T02:57:24.825Z,5.25
2022-09-15T03:00:11.206Z,6.53
2022-09-15T03:02:43.455Z,4.15
2022-09-15T03:05:12.769Z,3.95
2022-09-15T03:07:41.160Z,6.80
2022-09-15T03:10:11.934Z,5.03
2022-09-15T03:12:40.905Z,5.65
2022-09-15T03:15:11.761Z,5.28
2022-09-15T03:17:43.273Z,5.88
2022-09-15T03:20:13.718Z,5.65
2022-09-15T03:22:44.058Z,7.32
2022-09-15T03:25:15.027Z,6.60
2022-09-15T03:27:43.604Z,6.75
2022-09-15T03:30:13.712Z,6.00
2022-09-15T03:32:44.355Z,6.75
2022-09-15T03:35:12.527Z,8.18
2022-09-15T03:37:40.476Z,6.53
2022-09-15T03:40:11.260Z,5.05
2022-09-15T03:42:41.243Z,7.22
2022-09-15T03:45:12.759Z,7.53
2022-09-15T03:47:40.726Z,6.80
2022-09-15T03:50:10.580Z,6.82
2022-09-15T03:52:38.598Z,7.05
2022-09-15T03:55:07.448Z,5.88
2022-09-15T03:57:35.764Z,8.68
2022-09-15T04:00:05.192Z,8.00
2022-09-15T04:02:33.122Z,8.75
2022-09-15T04:05:03.038Z,10.25
2022-09-15T04:07:32.554Z,7.28
2022-09-15T04:10:00.958Z,7.20
2022-09-15T04:12:32.131Z,6.85
2022-09-15T04:15:00.255Z,5.93
2022-09-15T04:17:28.316Z,8.18
2022-09-15T04:19:57.576Z,5.85
2022-09-15T04:22:26.043Z,7.80
2022-09-15T04:24:55.457Z,8.38
2022-09-15T04:27:24.379Z,8.30
2022-09-15T04:29:52.903Z,7.25
2022-09-15T04:32:21.999Z,5.82
2022-09-15T04:34:50.574Z,6.55
2022-09-15T04:37:18.900Z,5.65
2022-09-15T04:39:49.191Z,6.30
2022-09-15T04:42:20.574Z,4.85
2022-09-15T04:44:49.402Z,7.20
2022-09-15T04:47:17.464Z,5.10
2022-09-15T04:49:45.544Z,6.10
2022-09-15T04:52:13.525Z,4.97
2022-09-15T04:54:41.602Z,5.50
2022-09-15T04:57:10.320Z,4.55
2022-09-15T04:59:39.994Z,6.88
2022-09-15T05:02:08.007Z,8.23
2022-09-15T05:04:38.264Z,4.57
2022-09-15T05:07:06.332Z,5.53
2022-09-15T05:09:34.263Z,4.55
2022-09-15T05:12:04.221Z,4.72
2022-09-15T05:14:33.982Z,6.03
2022-09-15T05:17:03.539Z,3.38
2022-09-15T05:19:31.469Z,2.78
2022-09-15T05:21:59.412Z,5.40
2022-09-15T05:24:31.058Z,3.95
2022-09-15T05:26:58.964Z,5.63
2022-09-15T05:29:27.108Z,4.03
2022-09-15T05:31:55.193Z,2.63
2022-09-15T05:34:24.881Z,6.13
2022-09-15T05:36:52.862Z,5.90
2022-09-15T05:39:20.795Z,4.93
2022-09-15T05:41:50.433Z,3.78
2022-09-15T05:44:18.721Z,4.65
2022-09-15T05:46:46.751Z,2.50
2022-09-15T05:49:15.089Z,3.28
2022-09-15T05:51:44.352Z,2.67
2022-09-15T05:54:12.273Z,4.13
2022-09-15T05:56:40.180Z,6.57
2022-09-15T05:59:09.433Z,3.45
2022-09-15T06:01:39.433Z,2.38
2022-09-15T06:04:08.319Z,2.95
2022-09-15T06:06:39.715Z,3.70
2022-09-15T06:09:09.857Z,4.60
2022-09-15T06:11:39.065Z,3.70
2022-09-15T06:14:07.391Z,5.13
2022-09-15T06:16:36.567Z,2.67
2022-09-15T06:19:05.029Z,3.00
2022-09-15T06:21:33.973Z,4.35
2022-09-15T06:24:04.446Z,3.17
2022-09-15T06:26:34.793Z,3.03
2022-09-15T06:29:06.914Z,4.53
2022-09-15T06:31:36.559Z,3.25
2022-09-15T06:34:07.066Z,2.55
2022-09-15T06:36:38.788Z,2.13
2022-09-15T06:39:06.745Z,3.65
2022-09-15T06:41:58.846Z,4.93
2022-09-15T06:44:29.907Z,3.03
2022-09-15T06:46:57.854Z,3.42
2022-09-15T06:49:27.588Z,3.30
2022-09-15T06:52:02.802Z,2.92
2022-09-15T06:54:31.268Z,2.70
2022-09-15T06:57:00.518Z,3.47
2022-09-15T06:59:28.722Z,3.30
2022-09-15T07:01:57.524Z,4.93
2022-09-15T07:04:26.627Z,3.05
2022-09-15T07:06:54.574Z,2.45
2022-09-15T07:09:22.776Z,4.10
2022-09-15T07:11:51.929Z,0.80
2022-09-15T07:14:21.301Z,0.50
2022-09-15T07:16:49.504Z,0.57
2022-09-15T07:19:17.789Z,1.02
2022-09-15T07:21:45.751Z,0.03
2022-09-15T07:24:14.768Z,0.20
2022-09-15T07:26:43.350Z,0.15
2022-09-15T07:29:11.277Z,0.17
2022-09-15T07:31:40.882Z,0.95
2022-09-15T07:34:08.994Z,0.45
2022-09-15T07:36:39.297Z,0.60
2022-09-15T07:39:08.153Z,0.40
2022-09-15T07:41:37.292Z,0.70
2022-09-15T07:44:11.765Z,0.45
2022-09-15T07:46:43.075Z,0.25
2022-09-15T07:49:12.820Z,0.30
2022-09-15T07:51:41.162Z,0.30
2022-09-15T07:54:11.553Z,0.30
2022-09-15T07:56:39.489Z,0.40
2022-09-15T07:59:07.945Z,0.30
2022-09-15T08:01:38.579Z,0.50
2022-09-15T08:04:10.071Z,0.35
2022-09-15T08:06:38.979Z,0.40
2022-09-15T08:09:10.136Z,0.57
2022-09-15T08:11:39.862Z,0.60
2022-09-15T08:14:08.104Z,0.63
2022-09-15T08:16:36.388Z,0.45
2022-09-15T08:19:11.517Z,3.10
2022-09-15T08:21:41.698Z,1.70
2022-09-15T08:24:11.300Z,0.77
2022-09-15T08:26:42.378Z,0.68
2022-09-15T08:29:12.665Z,0.65
2022-09-15T08:31:40.623Z,2.10
2022-09-15T08:34:14.605Z,2.85
2022-09-15T08:36:42.551Z,0.73
2022-09-15T08:39:15.283Z,0.82
2022-09-15T08:41:45.570Z,1.00
2022-09-15T08:44:24.625Z,0.57
2022-09-15T08:47:02.417Z,0.65
2022-09-15T08:49:51.149Z,0.75
2022-09-15T08:52:24.142Z,1.10
2022-09-15T08:54:58.556Z,0.80
2022-09-15T08:57:27.269Z,1.50
2022-09-15T08:59:55.604Z,0.70
2022-09-15T09:02:52.241Z,1.25
2022-09-15T09:05:40.683Z,1.17
2022-09-15T09:08:42.274Z,0.80
2022-09-15T09:11:19.080Z,0.80
2022-09-15T09:13:54.872Z,0.93
2022-09-15T09:16:44.793Z,1.08
2022-09-15T09:19:35.946Z,0.70
2022-09-15T09:22:11.791Z,0.70
2022-09-15T09:24:44.990Z,0.68
2022-09-15T09:27:15.802Z,0.98
2022-09-15T09:29:49.565Z,1.00
2022-09-15T09:32:22.220Z,1.20
2022-09-15T09:35:00.685Z,1.27
2022-09-15T09:37:30.503Z,0.80
2022-09-15T09:39:58.494Z,0.80
2022-09-15T09:42:31.324Z,0.93
2022-09-15T09:44:59.467Z,0.82
2022-09-15T09:47:32.734Z,1.25
2022-09-15T09:50:04.988Z,0.88
2022-09-15T09:52:36.829Z,2.55
2022-09-15T09:55:21.998Z,1.83
2022-09-15T09:57:50.503Z,1.45
2022-09-15T10:00:33.647Z,1.08
2022-09-15T10:03:11.535Z,1.63
2022-09-15T10:05:41.070Z,1.50
2022-09-15T10:08:17.688Z,5.18
2022-09-15T10:10:53.123Z,1.40
2022-09-15T10:13:23.702Z,1.20
2022-09-15T10:15:55.638Z,1.67
2022-09-15T10:18:30.955Z,2.45
2022-09-15T10:21:04.554Z,2.17
2022-09-15T10:23:35.136Z,2.30
2022-09-15T10:26:33.345Z,5.20
2022-09-15T10:29:19.896Z,2.65
2022-09-15T10:31:49.499Z,1.98
2022-09-15T10:34:26.561Z,2.20
2022-09-15T10:37:02.245Z,2.45
2022-09-15T10:39:43.224Z,2.15
2022-09-15T10:42:18.907Z,3.25
2022-09-15T10:44:55.960Z,2.63
2022-09-15T10:47:34.425Z,2.00
2022-09-15T10:50:17.424Z,3.42
2022-09-15T10:53:01.125Z,2.88
2022-09-15T10:55:52.776Z,3.22
2022-09-15T10:58:45.623Z,2.78
2022-09-15T11:01:30.016Z,2.88
2022-09-15T11:04:17.870Z,3.22
2022-09-15T11:06:54.405Z,5.20
2022-09-15T11:09:27.361Z,2.13
2022-09-15T11:12:17.100Z,3.83
2022-09-15T11:15:05.542Z,3.45
2022-09-15T11:17:46.384Z,2.83
2022-09-15T11:20:33.629Z,3.50
2022-09-15T11:23:13.733Z,4.38
2022-09-15T11:25:45.476Z,4.32
2022-09-15T11:28:22.584Z,3.80
2022-09-15T11:30:56.548Z,3.65
2022-09-15T11:33:32.067Z,3.38
2022-09-15T11:36:07.807Z,4.18
2022-09-15T11:38:42.967Z,2.40
2022-09-15T11:41:21.393Z,3.30
2022-09-15T11:44:04.931Z,4.30
2022-09-15T11:46:41.943Z,4.55
2022-09-15T11:49:17.214Z,2.60
2022-09-15T11:51:56.276Z,2.05
2022-09-15T11:54:34.316Z,2.22
2022-09-15T11:57:13.943Z,2.47
2022-09-15T11:59:48.476Z,2.35
2022-09-15T12:02:24.625Z,2.22
2022-09-15T12:05:12.811Z,3.17
2022-09-15T12:07:47.765Z,4.72
2022-09-15T12:10:19.805Z,2.00
2022-09-15T12:12:51.486Z,1.92
2022-09-15T12:15:27.334Z,7.30
2022-09-15T12:18:06.547Z,2.63
2022-09-15T12:20:55.677Z,1.08
2022-09-15T12:23:32.663Z,1.80
2022-09-15T12:26:16.493Z,1.08
2022-09-15T12:28:58.413Z,2.00
2022-09-15T12:31:36.203Z,1.98
2022-09-15T12:34:07.476Z,3.83
2022-09-15T12:36:44.852Z,1.65
2022-09-15T12:39:30.460Z,2.67
2022-09-15T12:42:15.972Z,1.80
2022-09-15T12:44:49.040Z,1.20
2022-09-15T12:47:33.132Z,1.48
2022-09-15T12:50:09.286Z,1.73
2022-09-15T12:52:47.378Z,1.58
2022-09-15T12:55:21.027Z,2.65
2022-09-15T12:57:55.094Z,2.45
2022-09-15T13:00:34.698Z,2.22
2022-09-15T13:03:05.386Z,2.05
2022-09-15T13:06:08.635Z,1.88
2022-09-15T13:08:50.977Z,2.88
2022-09-15T13:11:29.515Z,2.72
2022-09-15T13:14:14.198Z,3.08
2022-09-15T13:16:50.530Z,2.92
2022-09-15T13:19:27.371Z,1.70
2022-09-15T13:22:02.219Z,4.32
2022-09-15T13:24:43.023Z,2.15
2022-09-15T13:27:13.147Z,2.88
2022-09-15T13:29:49.897Z,4.10
2022-09-15T13:32:31.675Z,2.58
2022-09-15T13:35:31.423Z,1.98
2022-09-15T13:38:39.554Z,1.65
2022-09-15T13:41:33.942Z,1.75
2022-09-15T13:44:33.904Z,2.15
2022-09-15T13:47:17.090Z,2.60
2022-09-15T13:49:53.313Z,1.50
2022-09-15T13:53:01.821Z,3.00
2022-09-15T13:55:34.493Z,1.42
2022-09-15T14:01:01.056Z,4.53
2022-09-15T14:03:38.754Z,2.92
2022-09-15T14:06:17.841Z,1.40
2022-09-15T14:08:51.011Z,2.42
2022-09-15T14:11:32.867Z,2.13
2022-09-15T14:14:01.443Z,0.88
2022-09-15T14:16:36.755Z,1.58
2022-09-15T14:19:33.376Z,1.50
2022-09-15T14:22:01.997Z,1.50
2022-09-15T14:24:34.035Z,1.33
2022-09-15T14:27:14.159Z,3.35
2022-09-15T14:29:43.166Z,2.30
2022-09-15T14:32:16.464Z,1.17
2022-09-15T14:37:24.315Z,1.77
2022-09-15T14:39:56.545Z,1.50
2022-09-15T14:42:30.603Z,2.03
2022-09-15T14:48:02.541Z,1.50
2022-09-15T14:50:33.845Z,1.50
2022-09-15T14:53:04.748Z,2.10
2022-09-15T14:55:38.279Z,3.05
2022-09-15T14:58:13.630Z,2.65
2022-09-15T15:00:54.387Z,1.88
2022-09-15T15:03:30.843Z,2.92
2022-09-15T15:06:25.337Z,1.98
2022-09-15T15:08:56.932Z,3.80
2022-09-15T15:11:27.939Z,2.00
2022-09-15T15:13:57.383Z,6.20
2022-09-15T15:16:29.521Z,2.20
2022-09-15T15:19:01.948Z,5.45
2022-09-15T15:21:40.294Z,2.15
2022-09-15T15:24:29.252Z,2.67
2022-09-15T15:26:57.396Z,5.40
2022-09-15T15:29:41.413Z,3.17
2022-09-15T15:32:15.472Z,4.60
2022-09-15T15:34:50.587Z,3.05
2022-09-15T15:37:27.131Z,2.70
2022-09-15T15:39:57.368Z,3.28
2022-09-15T15:42:32.157Z,4.35
2022-09-15T15:45:03.355Z,2.35
2022-09-15T15:47:34.715Z,5.30
2022-09-15T15:50:14.454Z,2.70
2022-09-15T15:52:53.900Z,2.45
2022-09-15T15:55:24.146Z,3.22
2022-09-15T15:57:57.723Z,3.10
2022-09-15T16:00:36.698Z,6.68
2022-09-15T16:03:06.483Z,3.50
2022-09-15T16:05:37.278Z,3.60
2022-09-15T16:08:14.632Z,4.07
2022-09-15T16:10:46.045Z,3.58
2022-09-15T16:13:16.274Z,4.28
2022-09-15T16:15:46.824Z,2.92
2022-09-15T16:18:15.471Z,5.95
2022-09-15T16:20:46.381Z,5.38
2022-09-15T16:23:20.319Z,3.22
2022-09-15T16:25:52.167Z,2.30
2022-09-15T16:28:22.418Z,2.55
2022-09-15T16:30:51.425Z,7.07
2022-09-15T16:33:20.751Z,9.25
2022-09-15T16:35:53.211Z,7.72
2022-09-15T16:38:25.976Z,5.88
2022-09-15T16:40:57.345Z,8.57
2022-09-15T16:43:25.623Z,9.38
2022-09-15T16:45:55.352Z,12.32
2022-09-15T16:48:24.293Z,9.25
2022-09-15T16:51:19.525Z,7.97
2022-09-15T16:53:42.556Z,11.18
2022-09-15T16:56:13.421Z,9.75
2022-09-15T16:58:44.698Z,10.65
2022-09-15T17:01:19.717Z,9.10
2022-09-15T17:03:48.330Z,7.03
2022-09-15T17:06:18.644Z,8.02
2022-09-15T17:08:47.983Z,5.20
2022-09-15T17:11:17.934Z,4.90
2022-09-15T17:13:48.373Z,4.40
2022-09-15T17:16:19.642Z,3.38
2022-09-15T17:18:48.217Z,4.95
2022-09-15T17:21:18.153Z,5.22
2022-09-15T17:23:52.056Z,4.30
2022-09-15T17:26:21.803Z,4.15
2022-09-15T17:28:52.412Z,4.15
2022-09-15T17:31:23.813Z,3.65
2022-09-15T17:33:53.425Z,4.07
2022-09-15T17:36:21.399Z,5.50
2022-09-15T17:38:50.859Z,3.80
2022-09-15T17:41:21.460Z,4.75
2022-09-15T17:43:49.540Z,4.07
2022-09-15T17:46:18.020Z,2.88
2022-09-15T17:48:45.983Z,5.07
2022-09-15T17:51:18.078Z,3.08
2022-09-15T17:53:50.200Z,3.63
2022-09-15T17:56:19.519Z,4.00
2022-09-15T17:58:47.493Z,3.45
2022-09-15T18:01:16.299Z,2.60
2022-09-15T18:03:46.796Z,6.47
2022-09-15T18:06:14.884Z,3.28
2022-09-15T18:08:43.032Z,4.72
2022-09-15T18:11:15.355Z,7.95
2022-09-15T18:13:45.673Z,4.38
2022-09-15T18:16:15.391Z,6.25
2022-09-15T18:18:44.861Z,4.22
2022-09-15T18:21:25.704Z,4.90
2022-09-15T18:23:55.532Z,5.68
2022-09-15T18:26:26.209Z,4.38
2022-09-15T18:28:57.265Z,6.88
2022-09-15T18:31:25.531Z,8.63
2022-09-15T18:33:58.343Z,6.78
2022-09-15T18:36:28.489Z,9.48
2022-09-15T18:38:58.327Z,7.18
2022-09-15T18:41:27.746Z,11.07
2022-09-15T18:43:57.115Z,12.48
2022-09-15T18:46:25.933Z,12.63
2022-09-15T18:48:59.415Z,12.05
2022-09-15T18:51:50.433Z,31.13
2022-09-15T18:54:19.526Z,33.00
2022-09-15T18:56:47.782Z,14.43
2022-09-15T18:59:17.889Z,15.55
2022-09-15T19:01:46.081Z,14.63
2022-09-15T19:04:14.905Z,16.38
2022-09-15T19:06:46.462Z,17.33
2022-09-15T19:09:14.650Z,18.65
2022-09-15T19:11:42.715Z,12.52
2022-09-15T19:14:12.697Z,15.95
2022-09-15T19:16:56.947Z,14.45
2022-09-15T19:19:27.533Z,13.77
2022-09-15T19:21:55.775Z,13.35
2022-09-15T19:24:25.286Z,18.75
2022-09-15T19:26:53.199Z,14.85
2022-09-15T19:29:21.798Z,15.32
2022-09-15T19:31:53.040Z,16.40
2022-09-15T19:34:22.816Z,14.68
2022-09-15T19:36:53.028Z,13.43
2022-09-15T19:39:21.715Z,13.50
2022-09-15T19:41:50.709Z,13.35
2022-09-15T19:44:21.291Z,14.77
2022-09-15T19:46:52.664Z,13.93
2022-09-15T19:49:20.782Z,13.15
2022-09-15T19:51:52.916Z,10.05
2022-09-15T19:54:21.312Z,14.05
2022-09-15T19:56:51.081Z,14.32
2022-09-15T19:59:19.915Z,16.85
2022-09-15T20:01:48.194Z,15.80
2022-09-15T20:04:18.327Z,13.77
2022-09-15T20:06:48.893Z,13.75
2022-09-15T20:09:17.645Z,19.10
2022-09-15T20:11:48.782Z,16.45
2022-09-15T20:14:17.935Z,15.30
2022-09-15T20:16:46.143Z,13.80
2022-09-15T20:19:14.402Z,13.27
2022-09-15T20:21:51.713Z,19.13
2022-09-15T20:24:21.221Z,14.13
2022-09-15T20:26:49.566Z,16.17
2022-09-15T20:29:18.420Z,16.10
2022-09-15T20:31:47.257Z,17.33
2022-09-15T20:34:19.088Z,14.20
2022-09-15T20:36:48.882Z,19.73
2022-09-15T20:39:20.295Z,19.90
2022-09-15T20:41:50.165Z,17.95
2022-09-15T20:44:20.322Z,18.75
2022-09-15T20:46:48.667Z,23.52
2022-09-15T20:49:16.923Z,22.05
2022-09-15T20:51:46.008Z,23.58
2022-09-15T20:54:17.182Z,20.02
2022-09-15T20:56:45.307Z,19.80
2022-09-15T20:59:15.370Z,18.45
2022-09-15T21:01:44.085Z,20.05
2022-09-15T21:04:14.094Z,15.68
2022-09-15T21:06:42.343Z,21.42
2022-09-15T21:09:10.419Z,24.92
2022-09-15T21:11:43.030Z,20.73
2022-09-15T21:14:13.846Z,22.38
2022-09-15T21:16:42.733Z,20.58
2022-09-15T21:19:13.405Z,19.65
2022-09-15T21:21:42.938Z,20.20
2022-09-15T21:24:13.827Z,20.30
2022-09-15T21:26:57.419Z,25.35
2022-09-15T21:29:26.628Z,23.35
2022-09-15T21:31:56.685Z,17.55
2022-09-15T21:34:25.662Z,21.17
2022-09-15T21:36:55.577Z,18.85
2022-09-15T21:39:23.868Z,19.88
2022-09-15T21:41:54.627Z,25.25
2022-09-15T21:44:23.192Z,17.55
2022-09-15T21:46:52.630Z,25.88
2022-09-15T21:49:24.218Z,14.30
2022-09-15T21:51:52.541Z,22.08
2022-09-15T21:54:20.826Z,17.20
2022-09-15T21:56:48.893Z,22.25
2022-09-15T21:59:19.056Z,25.13
2022-09-15T22:01:47.335Z,20.27
2022-09-15T22:04:15.771Z,18.52
2022-09-15T22:06:44.750Z,18.58
2022-09-15T22:09:19.141Z,25.27
2022-09-15T22:11:47.688Z,19.55
2022-09-15T22:14:16.274Z,19.20
2022-09-15T22:16:45.776Z,19.75
2022-09-15T22:19:14.422Z,17.27
2022-09-15T22:21:42.935Z,20.75
2022-09-15T22:24:12.600Z,17.58
2022-09-15T22:26:42.103Z,16.00
2022-09-15T22:29:11.352Z,16.23
2022-09-15T22:31:40.862Z,21.85
2022-09-15T22:34:10.406Z,20.30
2022-09-15T22:36:38.873Z,16.25
2022-09-15T22:39:07.295Z,18.45
2022-09-15T22:41:37.247Z,21.58
2022-09-15T22:44:06.501Z,17.15
2022-09-15T22:46:35.018Z,18.80
2022-09-15T22:49:03.658Z,16.20
2022-09-15T22:51:33.312Z,17.83
2022-09-15T22:54:03.366Z,17.05
2022-09-15T22:56:31.454Z,19.38
2022-09-15T22:59:00.305Z,16.90
2022-09-15T23:01:30.596Z,13.18
2022-09-15T23:04:01.502Z,15.32
2022-09-15T23:06:33.522Z,17.65
2022-09-15T23:09:06.278Z,16.67
2022-09-15T23:11:34.928Z,17.10
2022-09-15T23:14:03.315Z,17.80
2022-09-15T23:16:32.260Z,16.73
2022-09-15T23:19:00.614Z,15.52
2022-09-15T23:21:28.828Z,14.95
2022-09-15T23:23:59.169Z,13.45
2022-09-15T23:26:27.685Z,16.58
2022-09-15T23:28:56.200Z,16.00
2022-09-15T23:31:24.747Z,19.95
2022-09-15T23:33:53.033Z,13.40
2022-09-15T23:36:22.870Z,12.45
2022-09-15T23:38:53.659Z,12.07
2022-09-15T23:41:23.535Z,16.00
2022-09-15T23:43:51.950Z,12.10
2022-09-15T23:46:19.956Z,16.52
2022-09-15T23:48:48.864Z,14.57
2022-09-15T23:51:17.086Z,12.90
2022-09-15T23:53:46.388Z,12.38
2022-09-15T23:56:14.730Z,12.95
2022-09-15T23:58:43.982Z,13.98
